createdAt,value
2024-01-24T00:00:50.399Z,67
2024-01-24T00:01:50.449Z,67
2024-01-24T00:02:50.682Z,68
2024-01-24T00:03:51.015Z,68
2024-01-24T00:04:51.180Z,68
2024-01-24T00:05:51.240Z,68
2024-01-24T00:06:51.313Z,68
2024-01-24T00:07:51.700Z,68
2024-01-24T00:08:51.900Z,68
2024-01-24T00:09:51.998Z,68
2024-01-24T00:10:52.085Z,68
2024-01-24T00:11:52.157Z,68
2024-01-24T00:12:52.291Z,68
2024-01-24T00:13:52.573Z,68
2024-01-24T00:14:52.730Z,68
2024-01-24T00:15:52.961Z,68
2024-01-24T00:16:53.015Z,68
2024-01-24T00:17:53.293Z,68
2024-01-24T00:18:53.582Z,68
2024-01-24T00:19:53.682Z,69
2024-01-24T00:20:53.793Z,69
2024-01-24T00:21:53.993Z,69
2024-01-24T00:22:54.113Z,69
2024-01-24T00:23:54.317Z,69
2024-01-24T00:24:54.336Z,69
2024-01-24T00:25:54.493Z,69
2024-01-24T00:26:54.601Z,69
2024-01-24T00:27:54.755Z,69
2024-01-24T00:28:54.914Z,69
2024-01-24T00:29:55.231Z,68
2024-01-24T00:30:55.498Z,68
2024-01-24T00:31:55.783Z,68
2024-01-24T00:32:55.987Z,69
2024-01-24T00:33:56.451Z,69
2024-01-24T00:34:56.498Z,69
2024-01-24T00:35:56.636Z,69
2024-01-24T00:36:56.761Z,69
2024-01-24T00:37:56.872Z,69
2024-01-24T00:38:57.034Z,69
2024-01-24T00:39:57.253Z,69
2024-01-24T00:40:57.299Z,69
2024-01-24T00:41:57.407Z,69
2024-01-24T00:42:57.573Z,69
2024-01-24T00:43:57.788Z,69
2024-01-24T00:44:57.956Z,68
2024-01-24T00:45:59.195Z,68
2024-01-24T00:46:58.579Z,68
2024-01-24T00:47:58.705Z,68
2024-01-24T00:48:58.839Z,68
2024-01-24T00:49:58.944Z,69
2024-01-24T00:50:59.366Z,69
2024-01-24T00:51:59.471Z,68
2024-01-24T00:52:59.784Z,68
2024-01-24T00:54:00.035Z,68
2024-01-24T00:55:00.360Z,68
2024-01-24T00:56:00.506Z,68
2024-01-24T00:57:00.790Z,68
2024-01-24T00:58:00.272Z,68
2024-01-24T00:59:00.645Z,68
2024-01-24T01:00:00.792Z,68
2024-01-24T01:01:01.119Z,68
2024-01-24T01:02:01.119Z,68
2024-01-24T01:03:01.273Z,68
2024-01-24T01:04:01.497Z,68
2024-01-24T01:05:01.528Z,68
2024-01-24T01:06:01.709Z,68
2024-01-24T01:07:01.834Z,68
2024-01-24T01:08:01.923Z,68
2024-01-24T01:09:02.164Z,68
2024-01-24T01:10:02.312Z,68
2024-01-24T01:11:02.456Z,68
2024-01-24T01:12:02.564Z,67
2024-01-24T01:13:02.745Z,67
2024-01-24T01:14:02.826Z,67
2024-01-24T01:15:02.943Z,67
2024-01-24T01:16:03.108Z,67
2024-01-24T01:17:03.215Z,68
2024-01-24T01:18:03.463Z,68
2024-01-24T01:19:03.649Z,68
2024-01-24T01:20:03.685Z,68
2024-01-24T01:21:03.845Z,68
2024-01-24T01:22:04.073Z,68
2024-01-24T01:23:04.372Z,68
2024-01-24T01:24:04.548Z,68
2024-01-24T01:25:04.648Z,68
2024-01-24T01:26:04.774Z,68
2024-01-24T01:27:04.853Z,68
2024-01-24T01:28:05.019Z,68
2024-01-24T01:29:05.128Z,68
2024-01-24T01:30:05.240Z,68
2024-01-24T01:31:05.356Z,68
2024-01-24T01:32:05.460Z,68
2024-01-24T01:33:05.709Z,68
2024-01-24T01:34:05.771Z,68
2024-01-24T01:35:05.828Z,68
2024-01-24T01:36:13.593Z,68
2024-01-24T01:37:06.116Z,68
2024-01-24T01:38:06.214Z,68
2024-01-24T01:39:06.368Z,68
2024-01-24T01:40:06.419Z,68
2024-01-24T01:41:06.530Z,68
2024-01-24T01:42:06.666Z,68
2024-01-24T01:43:06.750Z,68
2024-01-24T01:44:06.908Z,68
2024-01-24T01:45:07.068Z,68
2024-01-24T01:46:07.193Z,68
2024-01-24T01:47:07.241Z,68
2024-01-24T01:48:07.569Z,68
2024-01-24T01:49:07.716Z,68
2024-01-24T01:50:07.815Z,68
2024-01-24T01:51:07.919Z,68
2024-01-24T01:52:08.040Z,68
2024-01-24T01:53:08.168Z,68
2024-01-24T01:54:08.249Z,69
2024-01-24T01:55:08.468Z,69
2024-01-24T01:56:08.571Z,69
2024-01-24T01:57:09.987Z,69
2024-01-24T01:58:09.051Z,69
2024-01-24T01:59:09.202Z,69
2024-01-24T02:00:09.435Z,69
2024-01-24T02:01:09.697Z,69
2024-01-24T02:02:09.788Z,69
2024-01-24T02:03:09.941Z,69
2024-01-24T02:04:10.075Z,69
2024-01-24T02:05:10.226Z,69
2024-01-24T02:06:10.397Z,69
2024-01-24T02:07:10.589Z,69
2024-01-24T02:08:10.699Z,69
2024-01-24T02:09:11.113Z,69
2024-01-24T02:10:11.284Z,69
2024-01-24T02:11:12.413Z,69
2024-01-24T02:12:12.925Z,69
2024-01-24T02:13:12.362Z,69
2024-01-24T02:14:12.278Z,69
2024-01-24T02:15:12.439Z,69
2024-01-24T02:16:12.645Z,69
2024-01-24T02:17:12.900Z,69
2024-01-24T02:18:13.081Z,69
2024-01-24T02:19:13.316Z,69
2024-01-24T02:20:13.403Z,69
2024-01-24T02:21:13.530Z,69
2024-01-24T02:22:13.646Z,69
2024-01-24T02:23:13.871Z,69
2024-01-24T02:24:14.098Z,69
2024-01-24T02:25:14.189Z,69
2024-01-24T02:26:14.296Z,69
2024-01-24T02:27:14.466Z,69
2024-01-24T02:28:14.598Z,68
2024-01-24T02:29:14.779Z,68
2024-01-24T02:30:14.909Z,68
2024-01-24T02:31:15.007Z,68
2024-01-24T02:32:15.146Z,68
2024-01-24T02:33:15.500Z,68
2024-01-24T02:34:15.575Z,68
2024-01-24T02:35:15.578Z,68
2024-01-24T02:36:15.801Z,68
2024-01-24T02:37:15.841Z,68
2024-01-24T02:38:16.103Z,68
2024-01-24T02:39:16.230Z,68
2024-01-24T02:40:16.335Z,68
2024-01-24T02:41:16.536Z,68
2024-01-24T02:42:16.803Z,67
2024-01-24T02:43:16.826Z,67
2024-01-24T02:44:16.977Z,67
2024-01-24T02:45:17.065Z,67
2024-01-24T02:46:17.229Z,67
2024-01-24T02:47:17.441Z,67
2024-01-24T02:48:17.669Z,68
2024-01-24T02:49:17.861Z,68
2024-01-24T02:50:17.816Z,68
2024-01-24T02:51:17.903Z,68
2024-01-24T02:52:18.000Z,68
2024-01-24T02:53:18.141Z,68
2024-01-24T02:54:18.292Z,68
2024-01-24T02:55:18.403Z,68
2024-01-24T02:56:18.569Z,68
2024-01-24T02:57:18.657Z,68
2024-01-24T02:58:18.898Z,68
2024-01-24T02:59:19.000Z,68
2024-01-24T03:00:19.210Z,68
2024-01-24T03:01:19.205Z,68
2024-01-24T03:02:19.359Z,68
2024-01-24T03:03:19.467Z,68
2024-01-24T03:04:19.709Z,68
2024-01-24T03:05:19.708Z,68
2024-01-24T03:06:19.877Z,68
2024-01-24T03:07:19.954Z,68
2024-01-24T03:08:20.084Z,68
2024-01-24T03:09:20.226Z,68
2024-01-24T03:10:20.300Z,68
2024-01-24T03:11:20.355Z,68
2024-01-24T03:12:20.549Z,68
2024-01-24T03:13:20.651Z,68
2024-01-24T03:14:20.732Z,68
2024-01-24T03:15:21.021Z,68
2024-01-24T03:16:21.174Z,68
2024-01-24T03:17:21.314Z,68
2024-01-24T03:18:21.504Z,68
2024-01-24T03:19:21.616Z,68
2024-01-24T03:20:21.690Z,68
2024-01-24T03:21:22.028Z,68
2024-01-24T03:22:22.174Z,68
2024-01-24T03:23:22.275Z,68
2024-01-24T03:24:23.581Z,68
2024-01-24T03:25:22.772Z,68
2024-01-24T03:26:22.933Z,68
2024-01-24T03:27:23.118Z,69
2024-01-24T03:28:23.791Z,69
2024-01-24T03:29:23.427Z,70
2024-01-24T03:30:23.662Z,70
2024-01-24T03:31:23.841Z,70
2024-01-24T03:32:23.970Z,70
2024-01-24T03:33:24.293Z,70
2024-01-24T03:34:24.330Z,71
2024-01-24T03:35:24.468Z,71
2024-01-24T03:36:24.594Z,70
2024-01-24T03:37:24.675Z,70
2024-01-24T03:38:25.033Z,70
2024-01-24T03:39:25.158Z,70
2024-01-24T03:40:25.364Z,70
2024-01-24T03:41:25.461Z,69
2024-01-24T03:42:25.815Z,69
2024-01-24T03:43:26.013Z,68
2024-01-24T03:44:26.202Z,68
2024-01-24T03:45:26.399Z,68
2024-01-24T03:46:26.575Z,68
2024-01-24T03:47:26.730Z,67
2024-01-24T03:48:27.288Z,67
2024-01-24T03:49:26.870Z,67
2024-01-24T03:50:26.952Z,67
2024-01-24T03:51:27.118Z,67
2024-01-24T03:52:27.126Z,67
2024-01-24T03:53:27.279Z,67
2024-01-24T03:54:30.365Z,67
2024-01-24T03:55:27.831Z,67
2024-01-24T03:56:28.014Z,67
2024-01-24T03:57:28.504Z,67
2024-01-24T03:58:28.623Z,67
2024-01-24T03:59:28.808Z,67
2024-01-24T04:00:29.187Z,67
2024-01-24T04:01:29.290Z,67
2024-01-24T04:02:29.409Z,67
2024-01-24T04:03:29.705Z,67
2024-01-24T04:04:29.885Z,67
2024-01-24T04:05:30.180Z,67
2024-01-24T04:06:30.129Z,67
2024-01-24T04:07:30.692Z,67
2024-01-24T04:08:30.700Z,67
2024-01-24T04:09:30.833Z,67
2024-01-24T04:10:30.917Z,67
2024-01-24T04:11:31.034Z,67
2024-01-24T04:12:31.117Z,66
2024-01-24T04:13:31.188Z,66
2024-01-24T04:14:31.349Z,66
2024-01-24T04:15:31.523Z,66
2024-01-24T04:16:31.631Z,66
2024-01-24T04:17:31.834Z,66
2024-01-24T04:18:31.963Z,66
2024-01-24T04:19:32.368Z,66
2024-01-24T04:20:32.413Z,66
2024-01-24T04:21:33.044Z,66
2024-01-24T04:22:32.635Z,66
2024-01-24T04:23:32.998Z,66
2024-01-24T04:24:33.166Z,66
2024-01-24T04:25:33.373Z,66
2024-01-24T04:26:33.578Z,66
2024-01-24T04:27:33.809Z,66
2024-01-24T04:28:34.072Z,66
2024-01-24T04:29:34.316Z,66
2024-01-24T04:30:34.462Z,66
2024-01-24T04:31:34.645Z,66
2024-01-24T04:32:34.952Z,66
2024-01-24T04:33:34.849Z,66
2024-01-24T04:34:34.943Z,66
2024-01-24T04:35:35.036Z,66
2024-01-24T04:36:35.167Z,66
2024-01-24T04:37:35.341Z,66
2024-01-24T04:38:35.466Z,66
2024-01-24T04:39:35.521Z,66
2024-01-24T04:40:35.566Z,66
2024-01-24T04:41:38.388Z,67
2024-01-24T04:42:35.889Z,67
2024-01-24T04:43:35.989Z,68
2024-01-24T04:44:36.406Z,68
2024-01-24T04:45:36.607Z,68
2024-01-24T04:46:36.674Z,68
2024-01-24T04:47:37.044Z,67
2024-01-24T04:48:39.966Z,67
2024-01-24T04:50:37.482Z,66
2024-01-24T04:51:37.508Z,66
2024-01-24T04:52:37.660Z,66
2024-01-24T04:53:37.726Z,66
2024-01-24T04:54:37.983Z,66
2024-01-24T04:55:38.036Z,66
2024-01-24T04:56:38.175Z,66
2024-01-24T04:57:38.408Z,66
2024-01-24T04:58:41.258Z,66
2024-01-24T04:59:42.864Z,66
2024-01-24T05:00:39.094Z,66
2024-01-24T05:01:39.067Z,66
2024-01-24T05:02:39.251Z,66
2024-01-24T05:03:39.318Z,66
2024-01-24T05:04:39.470Z,66
2024-01-24T05:05:41.001Z,66
2024-01-24T05:06:39.802Z,66
2024-01-24T05:07:39.926Z,66
2024-01-24T05:08:40.050Z,66
2024-01-24T05:09:40.223Z,66
2024-01-24T05:10:40.407Z,66
2024-01-24T05:11:40.673Z,66
2024-01-24T05:12:41.190Z,66
2024-01-24T05:13:41.150Z,66
2024-01-24T05:14:41.624Z,66
2024-01-24T05:15:42.133Z,66
2024-01-24T05:16:42.677Z,66
2024-01-24T05:17:43.252Z,66
2024-01-24T05:18:43.329Z,66
2024-01-24T05:19:43.693Z,66
2024-01-24T05:20:44.104Z,66
2024-01-24T05:21:44.110Z,66
2024-01-24T05:22:44.225Z,65
2024-01-24T05:23:44.224Z,65
2024-01-24T05:24:44.422Z,65
2024-01-24T05:25:44.328Z,65
2024-01-24T05:26:44.710Z,65
2024-01-24T05:27:45.234Z,65
2024-01-24T05:28:45.188Z,65
2024-01-24T05:29:45.767Z,65
2024-01-24T05:30:45.819Z,65
2024-01-24T05:31:45.717Z,65
2024-01-24T05:32:46.270Z,65
2024-01-24T05:33:46.274Z,66
2024-01-24T05:34:46.851Z,66
2024-01-24T05:35:46.785Z,66
2024-01-24T05:36:46.797Z,66
2024-01-24T05:37:46.744Z,67
2024-01-24T05:38:47.278Z,67
2024-01-24T05:39:47.306Z,67
2024-01-24T05:40:47.277Z,68
2024-01-24T05:41:47.265Z,68
2024-01-24T05:42:48.729Z,68
2024-01-24T05:43:47.794Z,68
2024-01-24T05:44:47.811Z,69
2024-01-24T05:45:47.933Z,69
2024-01-24T05:46:47.869Z,69
2024-01-24T05:47:48.466Z,69
2024-01-24T05:48:49.111Z,69
2024-01-24T05:49:48.988Z,70
2024-01-24T05:50:48.942Z,70
2024-01-24T05:51:49.031Z,70
2024-01-24T05:52:49.042Z,70
2024-01-24T05:53:49.021Z,70
2024-01-24T05:54:49.538Z,70
2024-01-24T05:55:50.040Z,70
2024-01-24T05:56:50.033Z,70
2024-01-24T05:57:50.554Z,70
2024-01-24T05:58:50.571Z,71
2024-01-24T05:59:50.617Z,71
2024-01-24T06:00:50.624Z,71
2024-01-24T06:01:50.635Z,71
2024-01-24T06:02:51.102Z,71
2024-01-24T06:03:51.688Z,71
2024-01-24T06:04:52.188Z,71
2024-01-24T06:05:52.984Z,71
2024-01-24T06:06:53.176Z,71
2024-01-24T06:07:53.635Z,71
2024-01-24T06:08:54.220Z,71
2024-01-24T06:09:54.660Z,71
2024-01-24T06:10:55.222Z,71
2024-01-24T06:11:55.204Z,71
2024-01-24T06:12:55.249Z,71
2024-01-24T06:13:55.377Z,71
2024-01-24T06:14:55.367Z,71
2024-01-24T06:15:55.485Z,71
2024-01-24T06:16:55.437Z,71
2024-01-24T06:17:55.460Z,71
2024-01-24T06:18:55.552Z,71
2024-01-24T06:19:55.940Z,71
2024-01-24T06:20:56.008Z,71
2024-01-24T06:21:58.948Z,71
2024-01-24T06:22:56.445Z,71
2024-01-24T06:23:56.422Z,71
2024-01-24T06:24:57.390Z,71
2024-01-24T06:25:57.220Z,71
2024-01-24T06:26:59.699Z,71
2024-01-24T06:27:57.288Z,71
2024-01-24T06:28:59.988Z,71
2024-01-24T06:30:13.956Z,71
2024-01-24T06:30:57.767Z,71
2024-01-24T06:31:57.676Z,71
2024-01-24T06:32:58.022Z,71
2024-01-24T06:33:58.072Z,70
2024-01-24T06:34:58.040Z,70
2024-01-24T06:35:58.051Z,70
2024-01-24T06:36:58.079Z,70
2024-01-24T06:37:58.043Z,70
2024-01-24T06:38:58.613Z,69
2024-01-24T06:39:58.830Z,69
2024-01-24T06:40:58.791Z,69
2024-01-24T06:41:58.790Z,69
2024-01-24T06:42:59.745Z,69
2024-01-24T06:43:59.441Z,68
2024-01-24T06:44:59.464Z,68
2024-01-24T06:45:59.522Z,68
2024-01-24T06:46:59.459Z,68
2024-01-24T06:47:59.553Z,67
2024-01-24T06:48:59.543Z,67
2024-01-24T06:50:00.033Z,67
2024-01-24T06:51:00.001Z,66
2024-01-24T06:52:00.180Z,66
2024-01-24T06:53:00.598Z,66
2024-01-24T06:54:00.589Z,66
2024-01-24T06:55:00.614Z,66
2024-01-24T06:56:01.118Z,65
2024-01-24T06:57:01.653Z,65
2024-01-24T06:58:03.329Z,65
2024-01-24T06:59:02.174Z,65
2024-01-24T07:00:02.266Z,65
2024-01-24T07:01:02.409Z,65
2024-01-24T07:02:02.365Z,64
2024-01-24T07:03:02.378Z,64
2024-01-24T07:04:02.408Z,64
2024-01-24T07:05:02.448Z,64
2024-01-24T07:06:02.493Z,64
2024-01-24T07:07:02.445Z,64
2024-01-24T07:08:02.481Z,63
2024-01-24T07:09:02.448Z,63
2024-01-24T07:10:02.539Z,63
2024-01-24T07:11:02.539Z,63
2024-01-24T07:12:02.529Z,63
2024-01-24T07:13:02.697Z,63
2024-01-24T07:14:02.588Z,63
2024-01-24T07:15:02.605Z,63
2024-01-24T07:16:02.729Z,63
2024-01-24T07:17:02.650Z,63
2024-01-24T07:18:03.319Z,62
2024-01-24T07:19:03.253Z,62
2024-01-24T07:20:04.574Z,62
2024-01-24T07:21:03.773Z,62
2024-01-24T07:22:04.839Z,62
2024-01-24T07:23:03.809Z,62
2024-01-24T07:24:04.325Z,62
2024-01-24T07:25:04.362Z,62
2024-01-24T07:26:04.858Z,61
2024-01-24T07:27:04.829Z,61
2024-01-24T07:28:04.929Z,61
2024-01-24T07:29:05.008Z,61
2024-01-24T07:30:05.070Z,61
2024-01-24T07:31:05.137Z,61
2024-01-24T07:32:05.208Z,61
2024-01-24T07:33:05.657Z,61
2024-01-24T07:34:05.697Z,61
2024-01-24T07:35:05.816Z,61
2024-01-24T07:36:05.710Z,61
2024-01-24T07:37:05.918Z,61
2024-01-24T07:38:06.061Z,60
2024-01-24T07:39:06.108Z,60
2024-01-24T07:40:06.184Z,60
2024-01-24T07:41:06.246Z,60
2024-01-24T07:42:06.247Z,60
2024-01-24T07:43:06.792Z,60
2024-01-24T07:44:06.750Z,60
2024-01-24T07:45:07.259Z,60
2024-01-24T07:46:07.845Z,60
2024-01-24T07:47:08.400Z,60
2024-01-24T07:48:08.511Z,60
2024-01-24T07:49:08.574Z,60
2024-01-24T07:50:08.757Z,60
2024-01-24T07:51:08.531Z,59
2024-01-24T07:52:08.692Z,59
2024-01-24T07:53:08.826Z,59
2024-01-24T07:54:08.911Z,59
2024-01-24T07:55:08.917Z,59
2024-01-24T07:56:11.676Z,59
2024-01-24T07:57:10.039Z,59
2024-01-24T07:58:10.064Z,59
2024-01-24T07:59:10.049Z,59
2024-01-24T08:00:10.567Z,59
2024-01-24T08:01:10.807Z,59
2024-01-24T08:02:10.629Z,59
2024-01-24T08:03:10.988Z,59
2024-01-24T08:04:13.546Z,59
2024-01-24T08:05:11.167Z,59
2024-01-24T08:06:11.015Z,59
2024-01-24T08:07:11.663Z,59
2024-01-24T08:08:11.590Z,59
2024-01-24T08:09:12.030Z,59
2024-01-24T08:10:12.381Z,59
2024-01-24T08:11:12.396Z,58
2024-01-24T08:12:12.450Z,58
2024-01-24T08:13:12.474Z,58
2024-01-24T08:14:12.519Z,58
2024-01-24T08:15:12.696Z,58
2024-01-24T08:16:12.704Z,58
2024-01-24T08:17:12.752Z,58
2024-01-24T08:18:12.890Z,58
2024-01-24T08:19:12.877Z,58
2024-01-24T08:20:12.856Z,58
2024-01-24T08:21:13.405Z,58
2024-01-24T08:22:13.385Z,58
2024-01-24T08:23:13.468Z,58
2024-01-24T08:24:13.598Z,58
2024-01-24T08:25:13.625Z,58
2024-01-24T08:26:13.849Z,58
2024-01-24T08:27:13.727Z,58
2024-01-24T08:28:13.813Z,58
2024-01-24T08:29:18.998Z,58
2024-01-24T08:30:13.878Z,57
2024-01-24T08:31:13.772Z,57
2024-01-24T08:32:14.295Z,57
2024-01-24T08:33:14.816Z,57
2024-01-24T08:34:15.335Z,57
2024-01-24T08:35:15.931Z,57
2024-01-24T08:36:15.937Z,57
2024-01-24T08:37:15.918Z,57
2024-01-24T08:38:15.939Z,57
2024-01-24T08:39:15.996Z,57
2024-01-24T08:40:15.939Z,57
2024-01-24T08:41:15.974Z,57
2024-01-24T08:42:16.030Z,57
2024-01-24T08:43:16.075Z,56
2024-01-24T08:44:16.079Z,56
2024-01-24T08:45:16.091Z,56
2024-01-24T08:46:16.650Z,56
2024-01-24T08:47:16.666Z,56
2024-01-24T08:48:16.786Z,56
2024-01-24T08:49:16.896Z,56
2024-01-24T08:50:16.717Z,56
2024-01-24T08:51:16.699Z,56
2024-01-24T08:52:16.732Z,56
2024-01-24T08:53:16.752Z,56
2024-01-24T08:54:16.789Z,56
2024-01-24T08:55:16.812Z,56
2024-01-24T08:56:16.790Z,56
2024-01-24T08:57:17.302Z,56
2024-01-24T08:58:17.832Z,56
2024-01-24T08:59:17.784Z,56
2024-01-24T09:00:18.411Z,55
2024-01-24T09:01:18.492Z,55
2024-01-24T09:02:18.434Z,55
2024-01-24T09:03:18.440Z,55
2024-01-24T09:04:18.754Z,55
2024-01-24T09:05:18.909Z,55
2024-01-24T09:06:18.961Z,55
2024-01-24T09:07:18.874Z,55
2024-01-24T09:08:18.869Z,55
2024-01-24T09:09:19.473Z,55
2024-01-24T09:10:19.490Z,55
2024-01-24T09:11:19.402Z,55
2024-01-24T09:12:19.465Z,55
2024-01-24T09:13:19.402Z,55
2024-01-24T09:14:19.951Z,55
2024-01-24T09:15:19.993Z,55
2024-01-24T09:16:20.015Z,55
2024-01-24T09:17:20.436Z,55
2024-01-24T09:18:20.032Z,55
2024-01-24T09:19:20.178Z,55
2024-01-24T09:20:20.565Z,54
2024-01-24T09:21:20.497Z,54
2024-01-24T09:22:20.572Z,54
2024-01-24T09:23:23.179Z,54
2024-01-24T09:24:20.656Z,54
2024-01-24T09:25:21.277Z,54
2024-01-24T09:26:21.200Z,54
2024-01-24T09:27:21.733Z,54
2024-01-24T09:28:21.708Z,54
2024-01-24T09:29:22.202Z,54
2024-01-24T09:30:22.242Z,54
2024-01-24T09:31:22.834Z,54
2024-01-24T09:32:23.285Z,54
2024-01-24T09:33:23.420Z,54
2024-01-24T09:34:23.481Z,54
2024-01-24T09:35:23.539Z,53
2024-01-24T09:36:23.470Z,53
2024-01-24T09:37:23.452Z,53
2024-01-24T09:38:23.457Z,53
2024-01-24T09:39:23.530Z,53
2024-01-24T09:40:23.563Z,53
2024-01-24T09:41:23.501Z,53
2024-01-24T09:42:23.507Z,53
2024-01-24T09:43:23.501Z,54
2024-01-24T09:44:23.521Z,54
2024-01-24T09:45:23.591Z,54
2024-01-24T09:46:23.586Z,54
2024-01-24T09:47:23.567Z,54
2024-01-24T09:48:23.665Z,54
2024-01-24T09:49:23.703Z,54
2024-01-24T09:50:23.792Z,54
2024-01-24T09:51:23.787Z,54
2024-01-24T09:52:24.340Z,54
2024-01-24T09:53:24.328Z,54
2024-01-24T09:54:24.336Z,54
2024-01-24T09:55:24.874Z,54
2024-01-24T09:56:24.982Z,54
2024-01-24T09:57:25.154Z,54
2024-01-24T09:58:24.964Z,53
2024-01-24T09:59:24.920Z,53
2024-01-24T10:00:25.018Z,53
2024-01-24T10:01:25.152Z,53
2024-01-24T10:02:25.571Z,53
2024-01-24T10:03:25.528Z,53
2024-01-24T10:04:25.592Z,53
2024-01-24T10:05:26.061Z,53
2024-01-24T10:06:26.116Z,52
2024-01-24T10:07:29.207Z,52
2024-01-24T10:08:26.041Z,52
2024-01-24T10:09:26.713Z,52
2024-01-24T10:10:26.825Z,52
2024-01-24T10:11:26.864Z,52
2024-01-24T10:12:26.900Z,52
2024-01-24T10:13:26.994Z,52
2024-01-24T10:14:26.944Z,51
2024-01-24T10:15:27.058Z,51
2024-01-24T10:16:26.943Z,51
2024-01-24T10:17:27.611Z,51
2024-01-24T10:18:27.725Z,51
2024-01-24T10:19:27.699Z,51
2024-01-24T10:20:27.660Z,51
2024-01-24T10:21:27.911Z,51
2024-01-24T10:22:27.829Z,51
2024-01-24T10:23:27.853Z,51
2024-01-24T10:24:27.838Z,51
2024-01-24T10:25:27.845Z,51
2024-01-24T10:26:27.834Z,51
2024-01-24T10:27:28.665Z,51
2024-01-24T10:28:27.898Z,51
2024-01-24T10:29:27.954Z,51
2024-01-24T10:30:27.991Z,51
2024-01-24T10:31:28.473Z,51
2024-01-24T10:32:28.577Z,51
2024-01-24T10:33:28.823Z,51
2024-01-24T10:34:28.757Z,50
2024-01-24T10:35:29.148Z,50
2024-01-24T10:36:31.495Z,50
2024-01-24T10:37:29.209Z,50
2024-01-24T10:38:29.194Z,50
2024-01-24T10:39:29.266Z,50
2024-01-24T10:40:29.765Z,50
2024-01-24T10:41:30.239Z,50
2024-01-24T10:42:30.934Z,50
2024-01-24T10:43:30.943Z,50
2024-01-24T10:44:30.927Z,50
2024-01-24T10:45:30.941Z,50
2024-01-24T10:46:30.956Z,50
2024-01-24T10:47:31.641Z,50
2024-01-24T10:48:31.161Z,50
2024-01-24T10:49:31.097Z,50
2024-01-24T10:50:31.230Z,50
2024-01-24T10:51:31.296Z,50
2024-01-24T10:52:31.294Z,50
2024-01-24T10:53:31.748Z,50
2024-01-24T10:54:32.274Z,50
2024-01-24T10:55:32.803Z,50
2024-01-24T10:56:32.839Z,50
2024-01-24T10:57:32.888Z,50
2024-01-24T10:58:32.897Z,50
2024-01-24T10:59:33.335Z,50
2024-01-24T11:00:33.471Z,50
2024-01-24T11:01:33.387Z,50
2024-01-24T11:02:33.347Z,50
2024-01-24T11:03:33.380Z,50
2024-01-24T11:04:33.821Z,50
2024-01-24T11:05:34.527Z,50
2024-01-24T11:06:34.870Z,50
2024-01-24T11:07:34.392Z,49
2024-01-24T11:08:39.722Z,49
2024-01-24T11:09:34.942Z,50
2024-01-24T11:10:35.456Z,49
2024-01-24T11:11:35.423Z,49
2024-01-24T11:12:35.466Z,49
2024-01-24T11:13:35.548Z,49
2024-01-24T11:14:35.576Z,49
2024-01-24T11:15:38.341Z,49
2024-01-24T11:16:35.898Z,49
2024-01-24T11:17:35.909Z,50
2024-01-24T11:18:36.011Z,50
2024-01-24T11:19:36.056Z,50
2024-01-24T11:20:36.434Z,50
2024-01-24T11:21:37.006Z,50
2024-01-24T11:22:37.487Z,50
2024-01-24T11:23:37.415Z,49
2024-01-24T11:24:37.969Z,49
2024-01-24T11:25:38.513Z,49
2024-01-24T11:26:38.579Z,49
2024-01-24T11:27:39.274Z,49
2024-01-24T11:28:38.659Z,49
2024-01-24T11:29:38.789Z,49
2024-01-24T11:30:38.798Z,49
2024-01-24T11:31:39.254Z,49
2024-01-24T11:32:39.324Z,49
2024-01-24T11:33:39.371Z,49
2024-01-24T11:34:39.649Z,49
2024-01-24T11:35:39.504Z,49
2024-01-24T11:36:40.067Z,49
2024-01-24T11:37:40.511Z,49
2024-01-24T11:38:41.018Z,49
2024-01-24T11:39:41.761Z,49
2024-01-24T11:40:41.546Z,49
2024-01-24T11:41:41.555Z,49
2024-01-24T11:42:41.572Z,49
2024-01-24T11:43:41.589Z,49
2024-01-24T11:44:42.057Z,49
2024-01-24T11:45:42.101Z,49
2024-01-24T11:46:42.103Z,49
2024-01-24T11:47:42.186Z,49
2024-01-24T11:48:42.363Z,49
2024-01-24T11:49:42.149Z,49
2024-01-24T11:50:42.134Z,49
2024-01-24T11:51:42.774Z,49
2024-01-24T11:52:42.683Z,49
2024-01-24T11:53:42.696Z,49
2024-01-24T11:54:42.786Z,48
2024-01-24T11:55:42.897Z,48
2024-01-24T11:56:42.854Z,48
2024-01-24T11:57:45.582Z,48
2024-01-24T11:58:43.084Z,48
2024-01-24T11:59:43.113Z,48
2024-01-24T12:00:43.192Z,48
2024-01-24T12:01:46.075Z,48
2024-01-24T12:02:44.169Z,48
2024-01-24T12:03:44.408Z,48
2024-01-24T12:04:44.420Z,48
2024-01-24T12:05:44.400Z,48
2024-01-24T12:06:44.499Z,48
2024-01-24T12:07:44.928Z,48
2024-01-24T12:08:45.719Z,48
2024-01-24T12:09:45.030Z,48
2024-01-24T12:10:45.026Z,48
2024-01-24T12:11:45.022Z,48
2024-01-24T12:12:45.067Z,48
2024-01-24T12:13:45.584Z,48
2024-01-24T12:14:45.614Z,48
2024-01-24T12:15:45.711Z,48
2024-01-24T12:16:46.113Z,48
2024-01-24T12:17:46.643Z,48
2024-01-24T12:18:47.155Z,48
2024-01-24T12:19:47.660Z,48
2024-01-24T12:20:47.649Z,48
2024-01-24T12:21:47.694Z,48
2024-01-24T12:22:48.127Z,48
2024-01-24T12:23:48.642Z,48
2024-01-24T12:24:50.966Z,48
2024-01-24T12:25:48.865Z,48
2024-01-24T12:26:48.899Z,48
2024-01-24T12:27:48.954Z,48
2024-01-24T12:28:48.940Z,48
2024-01-24T12:29:48.950Z,48
2024-01-24T12:30:49.094Z,48
2024-01-24T12:31:48.984Z,48
2024-01-24T12:32:49.587Z,48
2024-01-24T12:33:49.637Z,48
2024-01-24T12:34:49.594Z,48
2024-01-24T12:35:49.648Z,48
2024-01-24T12:36:49.584Z,48
2024-01-24T12:37:49.505Z,48
2024-01-24T12:38:50.032Z,48
2024-01-24T12:39:50.130Z,48
2024-01-24T12:40:53.310Z,48
2024-01-24T12:41:50.256Z,48
2024-01-24T12:42:50.301Z,48
2024-01-24T12:43:50.409Z,48
2024-01-24T12:44:50.351Z,48
2024-01-24T12:45:51.527Z,49
2024-01-24T12:46:51.317Z,49
2024-01-24T12:47:54.784Z,49
2024-01-24T12:49:52.163Z,49
2024-01-24T12:50:52.608Z,48
2024-01-24T12:51:53.017Z,48
2024-01-24T12:52:52.967Z,48
2024-01-24T12:53:52.998Z,48
2024-01-24T12:54:53.350Z,48
2024-01-24T12:55:53.301Z,47
2024-01-24T12:56:53.292Z,47
2024-01-24T12:57:53.306Z,47
2024-01-24T12:58:53.515Z,47
2024-01-24T12:59:53.504Z,47
2024-01-24T13:00:53.794Z,46
2024-01-24T13:01:53.780Z,46
2024-01-24T13:02:53.764Z,46
2024-01-24T13:03:53.803Z,46
2024-01-24T13:04:53.851Z,46
2024-01-24T13:05:54.107Z,46
2024-01-24T13:06:53.875Z,46
2024-01-24T13:07:54.308Z,46
2024-01-24T13:08:54.292Z,46
2024-01-24T13:09:55.698Z,46
2024-01-24T13:10:54.886Z,46
2024-01-24T13:11:54.869Z,46
2024-01-24T13:12:54.861Z,46
2024-01-24T13:13:55.303Z,46
2024-01-24T13:14:56.193Z,46
2024-01-24T13:15:56.254Z,46
2024-01-24T13:16:56.224Z,46
2024-01-24T13:17:56.242Z,46
2024-01-24T13:18:56.287Z,46
2024-01-24T13:19:56.952Z,46
2024-01-24T13:20:56.979Z,46
2024-01-24T13:21:57.034Z,46
2024-01-24T13:22:57.104Z,46
2024-01-24T13:23:57.128Z,46
2024-01-24T13:24:57.161Z,46
2024-01-24T13:25:57.292Z,46
2024-01-24T13:26:57.241Z,46
2024-01-24T13:27:57.292Z,46
2024-01-24T13:28:57.265Z,46
2024-01-24T13:30:05.377Z,46
2024-01-24T13:30:57.628Z,46
2024-01-24T13:31:57.621Z,47
2024-01-24T13:32:57.659Z,47
2024-01-24T13:33:57.674Z,47
2024-01-24T13:34:58.192Z,47
2024-01-24T13:35:58.758Z,47
2024-01-24T13:36:58.796Z,47
2024-01-24T13:37:58.785Z,47
2024-01-24T13:38:58.901Z,47
2024-01-24T13:39:58.870Z,47
2024-01-24T13:40:58.876Z,47
2024-01-24T13:41:59.334Z,46
2024-01-24T13:42:59.864Z,47
2024-01-24T13:44:00.331Z,47
2024-01-24T13:45:00.793Z,48
2024-01-24T13:46:01.302Z,48
2024-01-24T13:47:01.735Z,48
2024-01-24T13:48:02.234Z,48
2024-01-24T13:49:02.773Z,48
2024-01-24T13:50:03.024Z,48
2024-01-24T13:51:03.185Z,48
2024-01-24T13:52:03.760Z,48
2024-01-24T13:53:03.741Z,48
2024-01-24T13:54:04.349Z,48
2024-01-24T13:55:04.878Z,48
2024-01-24T13:56:04.891Z,48
2024-01-24T13:57:04.944Z,48
2024-01-24T13:58:05.169Z,48
2024-01-24T13:59:05.377Z,48
2024-01-24T14:00:05.842Z,48
2024-01-24T14:01:06.493Z,48
2024-01-24T14:02:09.292Z,48
2024-01-24T14:03:07.317Z,48
2024-01-24T14:04:07.961Z,48
2024-01-24T14:05:07.838Z,48
2024-01-24T14:06:08.346Z,47
2024-01-24T14:07:08.966Z,47
2024-01-24T14:08:08.839Z,47
2024-01-24T14:09:08.932Z,46
2024-01-24T14:10:08.996Z,46
2024-01-24T14:11:08.956Z,46
2024-01-24T14:12:08.942Z,46
2024-01-24T14:13:09.103Z,46
2024-01-24T14:14:08.985Z,46
2024-01-24T14:15:14.798Z,46
2024-01-24T14:16:09.034Z,46
2024-01-24T14:17:09.592Z,46
2024-01-24T14:18:09.773Z,46
2024-01-24T14:19:09.715Z,46
2024-01-24T14:20:09.752Z,46